Terminal Aerodrome Forecast
Issued by NWS North Platte, NE

Home | Current Version | Previous Version | Text Only | Print | Product List | Glossary On
Versions: 1 2 3 4 5 6 7 8 9 10 11 12 13 14
000
FTUS43 KLBF 231139
TAFVTN
TAF
KVTN 231139Z 2312/2412 01007KT P6SM VCSH OVC008
     FM231900 02008KT 5SM -SHRA OVC010
     FM240000 35009KT 5SM -SHRA OVC007=

USA.gov is the U.S. government's official web portal to all federal, state and local government web resources and services.